Time;durP1;ratioP1;P1;durP2;ratioP2;P2;SDS_P1;SDS_P2;PMS_P1;PMS_P2;Temp;Humidity;BMP_temperature;BMP_pressure;BME280_temperature;BME280_humidity;BME280_pressure;Samples;Min_cycle;Max_cycle;Signal;HPM_P1;HPM_P2
2022/01/22 00:02:15;;;;;;;3.60;2.30;;;5.90;78.70;;;;;;4944630;28;20828;-47
2022/01/22 00:04:42;;;;;;;3.20;2.53;;;5.90;78.70;;;;;;4948994;28;21071;-48
2022/01/22 00:07:10;;;;;;;3.90;3.10;;;5.90;78.80;;;;;;4924899;28;20522;-48
2022/01/22 00:09:52;;;;;;;4.20;2.60;;;5.90;78.50;;;;;;4938136;29;20489;-47
2022/01/22 00:13:08;;;;;;;2.67;2.40;;;5.90;78.30;;;;;;4948831;28;20525;-46
2022/01/22 00:15:12;;;;;;;4.67;3.07;;;5.90;78.40;;;;;;4945862;28;20891;-46
2022/01/22 00:17:39;;;;;;;6.43;2.73;;;5.90;78.50;;;;;;4933185;28;20463;-46
2022/01/22 00:20:08;;;;;;;4.43;3.20;;;5.90;78.20;;;;;;4925116;28;20466;-46
2022/01/22 00:22:36;;;;;;;5.73;3.70;;;5.90;78.50;;;;;;4933292;29;20495;-47
2022/01/22 00:25:08;;;;;;;2.93;2.73;;;5.90;78.20;;;;;;4914783;28;20851;-46
2022/01/22 00:27:40;;;;;;;3.90;2.90;;;5.90;78.20;;;;;;4927937;29;20963;-47
2022/01/22 00:30:10;;;;;;;5.97;2.60;;;5.90;78.20;;;;;;4917438;28;20972;-47
2022/01/22 00:32:37;;;;;;;6.53;2.43;;;5.90;77.90;;;;;;4946671;28;20522;-47
2022/01/22 00:35:05;;;;;;;4.57;2.70;;;5.90;77.80;;;;;;4944236;28;20806;-47
2022/01/22 00:37:35;;;;;;;4.50;2.73;;;5.90;78.10;;;;;;4947543;28;20990;-47
2022/01/22 00:40:03;;;;;;;3.43;2.47;;;5.90;78.20;;;;;;4944581;28;20477;-46
2022/01/22 00:42:33;;;;;;;2.53;2.33;;;5.90;78.10;;;;;;4945594;28;20468;-47
2022/01/22 00:45:00;;;;;;;6.50;2.83;;;5.90;78.10;;;;;;4944801;28;20845;-47
2022/01/22 00:47:27;;;;;;;6.17;2.43;;;5.90;77.90;;;;;;4943528;28;20518;-46
2022/01/22 00:49:54;;;;;;;5.90;3.00;;;5.90;77.90;;;;;;4960528;28;20471;-47
2022/01/22 00:52:21;;;;;;;3.43;2.90;;;5.90;78.20;;;;;;4961533;28;20485;-47
2022/01/22 00:54:48;;;;;;;2.67;2.43;;;5.90;77.80;;;;;;4931267;28;20459;-47
2022/01/22 00:57:15;;;;;;;3.43;3.10;;;5.90;77.70;;;;;;4924214;29;20481;-46
2022/01/22 00:59:42;;;;;;;4.70;2.70;;;5.90;77.80;;;;;;4935240;28;20467;-47
2022/01/22 01:02:08;;;;;;;9.30;2.63;;;5.90;77.70;;;;;;4944302;28;20459;-47
2022/01/22 01:04:37;;;;;;;5.83;2.80;;;5.90;77.90;;;;;;4933417;28;20467;-47
2022/01/22 01:07:04;;;;;;;4.33;3.00;;;5.90;78.30;;;;;;4923124;29;20463;-46
2022/01/22 01:09:33;;;;;;;5.77;3.93;;;5.90;78.50;;;;;;4923485;28;20851;-47
2022/01/22 01:12:04;;;;;;;3.03;2.70;;;5.90;78.60;;;;;;4944334;28;20493;-47
2022/01/22 01:34:14;;;;;;;3.53;2.87;;;5.90;78.20;;;;;;4943758;28;20518;-47
2022/01/22 01:36:43;;;;;;;4.10;2.97;;;5.90;78.30;;;;;;4931563;29;20481;-47
2022/01/22 01:39:17;;;;;;;4.10;2.97;;;5.80;78.40;;;;;;4943126;28;20841;-47
2022/01/22 01:42:10;;;;;;;6.40;3.60;;;5.80;78.60;;;;;;4947674;28;20966;-47
2022/01/22 01:44:33;;;;;;;6.20;3.17;;;5.90;78.70;;;;;;4946794;28;20483;-47
2022/01/22 01:47:03;;;;;;;4.17;3.03;;;5.80;78.70;;;;;;4943409;28;20475;-47
2022/01/22 01:49:31;;;;;;;3.13;2.77;;;5.80;78.80;;;;;;4929387;28;20451;-47
2022/01/22 01:52:01;;;;;;;6.30;3.00;;;5.80;78.80;;;;;;4931405;28;20986;-47
2022/01/22 02:00:16;;;;;;;4.60;3.03;;;5.80;78.50;;;;;;4919512;29;21072;-48
2022/01/22 02:02:47;;;;;;;4.87;3.20;;;5.80;78.40;;;;;;4940409;28;20471;-48
2022/01/22 02:05:16;;;;;;;3.67;3.33;;;5.80;78.80;;;;;;4944333;28;20514;-48
2022/01/22 02:07:44;;;;;;;9.60;4.80;;;5.80;78.80;;;;;;4942300;28;20481;-47
2022/01/22 02:10:16;;;;;;;3.93;3.13;;;5.80;78.80;;;;;;4945737;28;20542;-48
2022/01/22 02:23:43;;;;;;;7.17;4.23;;;5.80;78.90;;;;;;4941223;28;20518;-48
2022/01/22 02:26:12;;;;;;;7.90;4.20;;;5.80;79.10;;;;;;4944294;28;20493;-47
2022/01/22 02:28:40;;;;;;;3.80;3.40;;;5.80;78.80;;;;;;4942588;28;20831;-47
2022/01/22 02:31:22;;;;;;;;;;;;;;;;;;;;;
2022/01/22 02:36:24;;;;;;;4.90;3.73;;;5.80;78.90;;;;;;4942643;28;20463;-47
2022/01/22 02:39:06;;;;;;;6.87;4.43;;;5.80;79.00;;;;;;4915222;29;20462;-47
2022/01/22 02:41:35;;;;;;;3.80;3.37;;;5.80;79.20;;;;;;4941885;28;20534;-48
2022/01/22 02:44:02;;;;;;;7.33;3.73;;;5.90;78.80;;;;;;4943647;28;20759;-48
2022/01/22 02:46:31;;;;;;;5.60;4.03;;;5.90;78.60;;;;;;4943905;28;20477;-47
2022/01/22 02:48:58;;;;;;;5.40;4.00;;;5.90;78.50;;;;;;4924050;29;20471;-48
2022/01/22 02:51:26;;;;;;;5.27;4.60;;;5.90;78.50;;;;;;4941462;28;20460;-48
2022/01/22 02:53:55;;;;;;;5.47;4.03;;;5.80;78.70;;;;;;4924620;29;20542;-48
2022/01/22 02:56:23;;;;;;;7.40;3.87;;;5.80;78.90;;;;;;4943064;28;20483;-48
2022/01/22 02:58:53;;;;;;;4.90;3.90;;;5.80;78.90;;;;;;4946120;28;20456;-48
2022/01/22 03:01:21;;;;;;;9.20;3.63;;;5.80;78.90;;;;;;4942275;28;20466;-48
2022/01/22 03:03:48;;;;;;;10.37;4.53;;;5.80;78.80;;;;;;4941961;28;20542;-48
2022/01/22 03:06:15;;;;;;;6.63;3.97;;;5.80;78.80;;;;;;4922160;28;20806;-48
2022/01/22 03:08:45;;;;;;;5.23;4.57;;;5.80;78.60;;;;;;4941689;28;20954;-46
2022/01/22 03:11:22;;;;;;;5.73;3.70;;;5.90;78.60;;;;;;4943054;28;20455;-47
2022/01/22 03:16:45;;;;;;;6.83;4.40;;;5.90;78.40;;;;;;4943486;28;20828;-47
2022/01/22 03:19:28;;;;;;;4.77;4.23;;;5.90;78.60;;;;;;4932122;28;20828;-47
2022/01/22 03:22:14;;;;;;;5.87;4.17;;;5.90;78.70;;;;;;4940245;28;20501;-47
2022/01/22 03:27:29;;;;;;;5.37;3.50;;;5.80;78.80;;;;;;4930637;28;20828;-47
2022/01/22 03:29:56;;;;;;;5.07;4.27;;;5.80;78.90;;;;;;4930010;29;20465;-46
2022/01/22 03:32:27;;;;;;;5.17;3.37;;;5.80;78.80;;;;;;4942590;28;20471;-48
2022/01/22 03:35:09;;;;;;;8.23;4.00;;;5.80;78.60;;;;;;4928277;28;20500;-47
2022/01/22 03:37:39;;;;;;;6.90;4.00;;;5.80;78.80;;;;;;4929690;29;20978;-47
2022/01/22 03:40:08;;;;;;;4.60;3.57;;;5.80;78.80;;;;;;4924800;29;20975;-47
2022/01/22 03:42:35;;;;;;;5.63;3.70;;;5.80;78.80;;;;;;4946008;28;20475;-47
2022/01/22 03:45:03;;;;;;;7.50;4.03;;;5.80;78.60;;;;;;4927577;29;20455;-47
2022/01/22 03:47:30;;;;;;;3.87;3.57;;;5.90;78.80;;;;;;4948672;28;20838;-48
2022/01/22 03:49:57;;;;;;;4.37;3.97;;;5.90;78.60;;;;;;4948694;28;21124;-48
2022/01/22 03:52:25;;;;;;;4.17;3.20;;;5.90;78.80;;;;;;4945488;28;20474;-47
2022/01/22 03:54:52;;;;;;;5.60;3.73;;;5.90;79.00;;;;;;4936204;29;20495;-50
2022/01/22 03:57:22;;;;;;;4.50;3.60;;;5.80;78.80;;;;;;4952894;28;20530;-49
2022/01/22 03:59:50;;;;;;;4.80;2.93;;;5.80;79.00;;;;;;4935628;29;20455;-50
2022/01/22 04:04:54;;;;;;;5.83;3.90;;;5.80;79.10;;;;;;4955430;28;20847;-50
2022/01/22 04:09:49;;;;;;;5.40;3.30;;;5.80;79.20;;;;;;4951995;28;20485;-49
2022/01/22 04:12:22;;;;;;;4.87;3.73;;;5.80;79.30;;;;;;4939934;29;20499;-49
2022/01/22 04:14:57;;;;;;;3.73;2.93;;;5.80;79.30;;;;;;4936720;28;20496;-49
2022/01/22 04:25:25;;;;;;;3.07;2.73;;;5.80;79.50;;;;;;4954401;28;20959;-50
2022/01/22 04:27:53;;;;;;;4.50;3.63;;;5.80;79.50;;;;;;4951288;28;20466;-48
2022/01/22 04:30:22;;;;;;;4.80;3.23;;;5.80;79.60;;;;;;4952083;28;20863;-50
2022/01/22 04:32:49;;;;;;;8.60;3.60;;;5.90;79.50;;;;;;4936556;29;20456;-50
2022/01/22 04:35:18;;;;;;;5.50;3.13;;;5.80;79.60;;;;;;4950845;28;20452;-49
2022/01/22 04:37:47;;;;;;;3.53;3.00;;;5.90;79.60;;;;;;4937880;28;20443;-49
2022/01/22 04:40:14;;;;;;;3.70;3.27;;;5.90;79.50;;;;;;4942778;29;20873;-48
2022/01/22 04:42:43;;;;;;;3.77;3.40;;;5.90;79.50;;;;;;4950734;28;20886;-49
2022/01/22 04:55:40;;;;;;;4.13;3.13;;;5.80;80.00;;;;;;4951441;28;20467;-49
2022/01/22 04:58:08;;;;;;;3.50;3.20;;;5.80;80.00;;;;;;4952584;28;20462;-51
2022/01/22 05:00:38;;;;;;;3.20;2.73;;;5.90;80.00;;;;;;4950074;28;20471;-49
2022/01/22 05:03:05;;;;;;;3.50;2.80;;;5.90;80.20;;;;;;4933081;29;20514;-49
2022/01/22 05:05:33;;;;;;;9.03;2.57;;;5.90;80.10;;;;;;4934639;28;20461;-49
2022/01/22 05:07:59;;;;;;;6.00;3.03;;;5.90;80.00;;;;;;4949304;28;20459;-49
2022/01/22 05:10:26;;;;;;;3.47;2.80;;;5.90;80.10;;;;;;4949797;28;20477;-50
2022/01/22 05:12:53;;;;;;;4.27;3.97;;;5.90;80.20;;;;;;4952088;28;20463;-49
2022/01/22 05:15:21;;;;;;;2.90;2.60;;;5.90;80.20;;;;;;4952913;28;20491;-50
2022/01/22 05:17:48;;;;;;;3.17;2.63;;;5.90;80.30;;;;;;4949680;28;20459;-50
2022/01/22 05:20:23;;;;;;;4.60;3.50;;;5.80;80.50;;;;;;4950288;28;20475;-49
2022/01/22 05:25:35;;;;;;;4.07;2.97;;;5.80;80.90;;;;;;4952759;28;20484;-49
2022/01/22 05:38:24;;;;;;;3.50;3.20;;;5.80;81.10;;;;;;4952549;28;20467;-50
2022/01/22 05:40:51;;;;;;;3.27;2.97;;;5.80;81.30;;;;;;4920098;28;20953;-50
2022/01/22 05:43:18;;;;;;;5.13;3.53;;;5.80;81.40;;;;;;4951033;28;20555;-49
2022/01/22 05:45:45;;;;;;;5.27;3.47;;;5.80;81.50;;;;;;4953027;28;20514;-50
2022/01/22 05:48:12;;;;;;;5.53;3.93;;;5.80;81.50;;;;;;4948357;28;20466;-49
2022/01/22 06:01:16;;;;;;;5.20;4.00;;;5.90;81.60;;;;;;4949726;28;20467;-49
2022/01/22 06:03:44;;;;;;;7.23;4.20;;;5.90;81.40;;;;;;4948486;28;20458;-50
2022/01/22 06:06:11;;;;;;;5.27;3.53;;;5.80;81.70;;;;;;4948899;28;20463;-49
2022/01/22 06:08:46;;;;;;;4.77;4.30;;;5.80;81.90;;;;;;4951251;28;20551;-50
2022/01/22 06:11:21;;;;;;;4.43;3.80;;;5.90;81.80;;;;;;4949067;28;20459;-49
2022/01/22 06:13:49;;;;;;;4.30;3.63;;;5.90;81.80;;;;;;4947915;28;20498;-50
2022/01/22 06:16:18;;;;;;;4.40;3.37;;;5.90;81.80;;;;;;4950673;28;20470;-49
2022/01/22 06:18:45;;;;;;;4.03;3.60;;;5.90;81.80;;;;;;4950708;28;20518;-50
2022/01/22 06:21:13;;;;;;;4.90;3.97;;;5.90;81.90;;;;;;4937463;29;20461;-50
2022/01/22 06:23:41;;;;;;;4.90;3.90;;;5.90;81.90;;;;;;4951468;28;20494;-50
2022/01/22 06:26:08;;;;;;;5.80;4.10;;;6.00;81.90;;;;;;4921294;28;20939;-50
2022/01/22 06:28:36;;;;;;;4.20;3.80;;;5.90;82.10;;;;;;4934136;28;20570;-48
2022/01/22 06:31:04;;;;;;;4.20;3.80;;;6.00;82.10;;;;;;4934435;28;20526;-49
2022/01/22 06:33:31;;;;;;;4.10;3.50;;;5.90;82.00;;;;;;4954398;28;20462;-49
2022/01/22 06:35:57;;;;;;;3.60;3.30;;;6.00;82.00;;;;;;4937516;29;20455;-49
2022/01/22 06:38:26;;;;;;;9.73;4.40;;;6.00;81.90;;;;;;4954831;28;21019;-50
2022/01/22 06:43:38;;;;;;;4.67;4.27;;;5.90;82.20;;;;;;4938460;29;20466;-50
2022/01/22 06:46:05;;;;;;;5.80;3.57;;;5.90;82.40;;;;;;4951561;28;20828;-49
2022/01/22 06:48:32;;;;;;;5.00;3.83;;;5.90;82.30;;;;;;4947147;28;20974;-49
2022/01/22 06:51:00;;;;;;;7.03;3.70;;;5.90;82.50;;;;;;4952045;28;20466;-49
2022/01/22 06:53:27;;;;;;;3.70;3.40;;;5.90;82.50;;;;;;4933952;28;20466;-48
2022/01/22 06:56:01;;;;;;;4.87;4.43;;;5.90;82.50;;;;;;4943251;28;20817;-49
2022/01/22 06:58:27;;;;;;;5.23;4.40;;;5.90;82.70;;;;;;4938186;28;20470;-49
2022/01/22 07:00:54;;;;;;;4.90;4.30;;;5.90;82.80;;;;;;4951797;28;20556;-48
2022/01/22 07:03:21;;;;;;;4.30;3.90;;;5.90;82.80;;;;;;4953197;28;20473;-49
2022/01/22 07:05:48;;;;;;;5.93;4.87;;;5.90;82.80;;;;;;4934787;28;21143;-50
2022/01/22 07:08:19;;;;;;;5.40;3.80;;;5.90;82.70;;;;;;4950266;28;20990;-49
2022/01/22 07:10:46;;;;;;;5.87;4.13;;;5.90;82.80;;;;;;4947282;28;20976;-49
2022/01/22 07:13:13;;;;;;;4.33;4.00;;;5.90;82.90;;;;;;4948400;28;20469;-49
2022/01/22 07:15:39;;;;;;;5.13;4.20;;;5.90;82.80;;;;;;4948157;28;20943;-48
2022/01/22 07:18:06;;;;;;;4.00;3.60;;;5.90;82.80;;;;;;4963276;28;20458;-49
2022/01/22 07:20:39;;;;;;;4.73;3.40;;;5.90;82.80;;;;;;4946810;28;20459;-50
2022/01/22 07:23:53;;;;;;;6.17;4.00;;;5.90;82.80;;;;;;4929754;29;20482;-49
2022/01/22 07:25:53;;;;;;;4.23;3.83;;;5.90;82.80;;;;;;4946896;28;20827;-49
2022/01/22 07:28:20;;;;;;;4.80;3.77;;;6.00;82.90;;;;;;4952242;28;20454;-48
2022/01/22 07:30:48;;;;;;;3.90;3.40;;;6.00;83.00;;;;;;4929526;29;20451;-49
2022/01/22 07:33:15;;;;;;;3.43;3.10;;;6.00;82.90;;;;;;4951064;28;20996;-49
2022/01/22 07:35:48;;;;;;;3.90;3.23;;;6.00;82.90;;;;;;4950357;28;21002;-49
2022/01/22 07:38:38;;;;;;;6.03;3.77;;;6.00;83.00;;;;;;4933101;28;20449;-51
2022/01/22 07:41:09;;;;;;;4.67;3.40;;;5.90;83.20;;;;;;4938028;29;20972;-50
2022/01/22 07:43:37;;;;;;;5.13;3.63;;;6.00;83.10;;;;;;4930890;28;20829;-49
2022/01/22 07:46:06;;;;;;;3.90;3.50;;;6.00;83.10;;;;;;4949042;28;20483;-50
2022/01/22 07:48:33;;;;;;;4.00;3.60;;;6.00;83.20;;;;;;4948987;28;20469;-49
2022/01/22 07:51:00;;;;;;;4.80;3.40;;;6.00;83.30;;;;;;4948179;28;20460;-49
2022/01/22 07:53:26;;;;;;;3.73;3.27;;;6.00;83.40;;;;;;4960863;28;20468;-49
2022/01/22 07:55:53;;;;;;;4.03;3.20;;;6.00;83.40;;;;;;4935578;29;20555;-49
2022/01/22 07:58:20;;;;;;;4.33;3.20;;;6.00;83.40;;;;;;4934505;28;20470;-50
2022/01/22 08:00:46;;;;;;;4.57;4.07;;;6.00;83.30;;;;;;4947268;28;20455;-51
2022/01/22 08:03:13;;;;;;;4.77;3.53;;;6.10;83.40;;;;;;4935263;29;20522;-50
2022/01/22 08:05:40;;;;;;;5.33;3.43;;;6.00;83.20;;;;;;4949786;28;20471;-50
2022/01/22 08:08:07;;;;;;;4.03;3.17;;;6.10;83.40;;;;;;4947848;28;20460;-49
2022/01/22 08:10:34;;;;;;;4.70;3.30;;;6.10;83.30;;;;;;4949901;28;20588;-49
2022/01/22 08:13:00;;;;;;;3.23;2.97;;;6.10;83.30;;;;;;4931701;29;20467;-51
2022/01/22 08:15:27;;;;;;;4.37;3.97;;;6.10;83.40;;;;;;4916155;28;20486;-51
2022/01/22 08:17:56;;;;;;;3.43;3.17;;;6.10;83.60;;;;;;4943557;28;20467;-50
2022/01/22 08:20:24;;;;;;;3.50;3.20;;;6.10;83.80;;;;;;4948229;28;20455;-50
2022/01/22 08:22:51;;;;;;;3.60;3.30;;;6.10;83.80;;;;;;4945490;28;20498;-50
2022/01/22 08:25:18;;;;;;;3.50;3.20;;;6.10;83.90;;;;;;4946088;28;20467;-50
2022/01/22 08:30:33;;;;;;;2.80;2.60;;;6.20;83.90;;;;;;4951754;28;20894;-49
2022/01/22 08:33:30;;;;;;;3.93;3.57;;;6.20;83.90;;;;;;4950607;28;20478;-49
2022/01/22 08:35:53;;;;;;;6.20;3.80;;;6.20;83.80;;;;;;4952439;28;20597;-49
2022/01/22 08:38:26;;;;;;;3.17;2.87;;;6.20;83.90;;;;;;4953338;28;20473;-51
2022/01/22 08:40:56;;;;;;;3.27;2.97;;;6.20;84.00;;;;;;4952168;28;20831;-50
2022/01/22 08:43:25;;;;;;;3.10;2.90;;;6.30;84.10;;;;;;4948338;28;20469;-50
2022/01/22 08:45:53;;;;;;;3.70;3.27;;;6.30;83.70;;;;;;4946284;28;20475;-49
2022/01/22 08:48:21;;;;;;;3.20;3.00;;;6.30;83.60;;;;;;4950740;28;20887;-48
2022/01/22 08:50:49;;;;;;;3.50;3.20;;;6.30;83.90;;;;;;4934681;29;20470;-50
2022/01/22 08:53:36;;;;;;;3.83;3.53;;;6.30;84.00;;;;;;4950878;28;20972;-48
2022/01/22 08:56:09;;;;;;;3.73;3.43;;;6.40;83.70;;;;;;4945249;28;20492;-49
2022/01/22 08:58:36;;;;;;;4.73;4.33;;;6.40;83.40;;;;;;4949958;28;20916;-50
2022/01/22 09:01:03;;;;;;;3.27;2.97;;;6.40;83.50;;;;;;4929709;28;21010;-49
2022/01/22 09:03:31;;;;;;;4.40;3.27;;;6.50;83.60;;;;;;4950604;28;21060;-49
2022/01/22 09:05:58;;;;;;;4.60;3.23;;;6.50;83.50;;;;;;4949732;28;20460;-48
2022/01/22 09:08:26;;;;;;;4.63;3.50;;;6.40;83.50;;;;;;4950971;28;20452;-49
2022/01/22 09:10:53;;;;;;;4.20;3.67;;;6.40;83.60;;;;;;4951639;28;20481;-49
2022/01/22 09:13:22;;;;;;;4.10;3.70;;;6.40;83.70;;;;;;4950555;28;20551;-49
2022/01/22 09:15:53;;;;;;;4.00;3.70;;;6.50;83.70;;;;;;4949465;28;20497;-49
2022/01/22 09:18:20;;;;;;;3.40;3.10;;;6.50;83.90;;;;;;4952352;28;20523;-49
2022/01/22 09:23:17;;;;;;;4.83;3.80;;;6.60;83.70;;;;;;4950625;28;20871;-49
2022/01/22 09:25:46;;;;;;;4.23;3.83;;;6.60;83.70;;;;;;4947888;29;20447;-49
2022/01/22 09:28:14;;;;;;;4.67;3.93;;;6.60;83.70;;;;;;4937786;29;20455;-49
2022/01/22 09:30:42;;;;;;;4.53;4.13;;;6.70;83.60;;;;;;4933964;29;20498;-50
2022/01/22 09:33:09;;;;;;;4.90;4.10;;;6.70;83.60;;;;;;4950607;28;20563;-50
2022/01/22 09:35:35;;;;;;;4.80;3.73;;;6.80;83.60;;;;;;4934914;28;20497;-50
2022/01/22 09:38:02;;;;;;;5.57;3.70;;;6.80;83.30;;;;;;4946515;28;20456;-50
2022/01/22 09:40:30;;;;;;;3.20;2.90;;;6.90;83.20;;;;;;4929791;28;20451;-50
2022/01/22 09:42:59;;;;;;;4.47;4.07;;;7.00;83.40;;;;;;4947046;28;20452;-50
2022/01/22 09:45:30;;;;;;;4.17;3.77;;;7.10;83.00;;;;;;4946551;28;20463;-50
2022/01/22 09:48:00;;;;;;;4.33;3.93;;;7.20;82.80;;;;;;4948677;28;20504;-50
2022/01/22 09:50:29;;;;;;;3.90;3.50;;;7.30;82.80;;;;;;4945208;28;20478;-51
2022/01/22 09:52:57;;;;;;;4.03;3.73;;;7.40;82.50;;;;;;4959667;28;20640;-50
2022/01/22 09:55:24;;;;;;;4.20;3.83;;;7.50;81.40;;;;;;4944353;28;20487;-51
2022/01/22 09:57:53;;;;;;;4.40;4.00;;;7.60;80.70;;;;;;4946585;28;20455;-51
2022/01/22 10:00:22;;;;;;;5.73;4.13;;;7.60;80.70;;;;;;4924855;28;20459;-51
2022/01/22 10:02:51;;;;;;;4.43;4.03;;;7.60;80.50;;;;;;4926273;28;20468;-51
2022/01/22 10:05:48;;;;;;;5.13;4.63;;;7.50;80.40;;;;;;4944186;28;20459;-50
2022/01/22 10:08:29;;;;;;;5.23;4.73;;;7.40;80.60;;;;;;4929162;29;20482;-50
2022/01/22 10:10:58;;;;;;;6.00;5.40;;;7.40;80.90;;;;;;4932902;28;20481;-49
2022/01/22 10:13:44;;;;;;;5.60;5.10;;;7.30;81.00;;;;;;4944712;28;20470;-49
2022/01/22 10:16:28;;;;;;;5.63;4.80;;;7.30;81.10;;;;;;4942980;28;20533;-50
2022/01/22 10:19:15;;;;;;;5.57;4.93;;;7.20;81.20;;;;;;4932900;28;20464;-50
2022/01/22 10:22:02;;;;;;;6.53;5.93;;;7.20;81.10;;;;;;4945363;28;20458;-49
2022/01/22 10:24:39;;;;;;;8.57;4.70;;;7.20;81.30;;;;;;4926047;28;20505;-50
2022/01/22 10:27:37;;;;;;;5.53;4.87;;;7.20;81.20;;;;;;4943968;28;20464;-49
2022/01/22 10:30:15;;;;;;;5.17;4.20;;;7.20;81.10;;;;;;4946415;28;20462;-50
2022/01/22 10:32:58;;;;;;;5.70;5.10;;;7.30;81.00;;;;;;4941425;28;20554;-48
2022/01/22 10:35:28;;;;;;;6.90;5.80;;;7.30;81.00;;;;;;4942804;28;20499;-49
2022/01/22 10:38:17;;;;;;;5.20;4.63;;;7.30;81.10;;;;;;4945437;28;20451;-49
2022/01/22 10:40:46;;;;;;;4.90;4.40;;;7.40;80.90;;;;;;4941180;28;20478;-46
2022/01/22 10:43:17;;;;;;;4.97;4.47;;;7.40;80.90;;;;;;4928331;29;20865;-47
2022/01/22 10:46:07;;;;;;;5.67;5.07;;;7.40;80.70;;;;;;4942925;28;20456;-46
2022/01/22 10:48:36;;;;;;;6.10;5.50;;;7.40;80.60;;;;;;4944081;28;20968;-47
2022/01/22 10:51:07;;;;;;;9.20;5.47;;;7.50;80.40;;;;;;4914072;29;20840;-47
2022/01/22 10:53:53;;;;;;;4.90;4.50;;;7.50;80.40;;;;;;4931502;28;20570;-46
2022/01/22 10:56:22;;;;;;;5.07;4.00;;;7.50;80.50;;;;;;4944870;28;20483;-47
2022/01/22 10:59:12;;;;;;;5.70;5.10;;;7.60;80.60;;;;;;4925411;29;20850;-47
2022/01/22 11:01:53;;;;;;;6.50;5.10;;;7.60;80.80;;;;;;4945203;28;20470;-47
2022/01/22 11:04:25;;;;;;;9.47;4.63;;;7.70;80.80;;;;;;4927810;28;20455;-46
2022/01/22 11:07:15;;;;;;;5.67;4.53;;;7.70;80.30;;;;;;4941934;28;20590;-49
2022/01/22 11:09:50;;;;;;;4.97;3.90;;;7.70;80.10;;;;;;4943691;28;20814;-49
2022/01/22 11:12:17;;;;;;;5.10;4.17;;;7.70;80.10;;;;;;4944294;28;20474;-49
2022/01/22 11:14:45;;;;;;;5.47;4.57;;;7.70;80.50;;;;;;4947382;28;20863;-49
2022/01/22 11:17:13;;;;;;;5.27;4.60;;;7.80;80.20;;;;;;4922943;28;20840;-46
2022/01/22 11:19:44;;;;;;;4.40;3.80;;;7.90;79.70;;;;;;4937945;28;20467;-47
2022/01/22 11:22:13;;;;;;;6.07;4.40;;;7.90;79.10;;;;;;4938186;28;20468;-47
2022/01/22 11:24:51;;;;;;;4.13;3.70;;;7.90;78.90;;;;;;4939016;28;20467;-47
2022/01/22 11:27:20;;;;;;;6.20;3.90;;;7.90;78.80;;;;;;4943086;28;20455;-47
2022/01/22 11:29:56;;;;;;;4.53;3.80;;;7.90;78.60;;;;;;4941595;28;20839;-46
2022/01/22 11:32:29;;;;;;;4.03;3.63;;;7.90;78.00;;;;;;4942537;28;20926;-47
2022/01/22 11:35:02;;;;;;;3.50;3.20;;;7.90;78.80;;;;;;4943511;28;21003;-47
2022/01/22 11:37:47;;;;;;;4.30;3.60;;;8.00;78.70;;;;;;4936195;28;20851;-47
2022/01/22 11:40:41;;;;;;;4.47;4.07;;;8.00;78.30;;;;;;4938078;28;21067;-47
2022/01/22 11:43:12;;;;;;;4.00;3.60;;;8.00;78.70;;;;;;4936090;28;20466;-47
2022/01/22 11:45:43;;;;;;;5.83;2.90;;;8.00;78.50;;;;;;4943652;28;21250;-47
2022/01/22 11:48:32;;;;;;;4.03;3.43;;;8.10;78.40;;;;;;4910352;28;20498;-47
2022/01/22 11:51:25;;;;;;;3.87;3.57;;;8.10;77.50;;;;;;4929183;28;20467;-47
2022/01/22 11:53:57;;;;;;;4.03;3.33;;;8.10;77.20;;;;;;4917477;29;20480;-47
2022/01/22 11:56:46;;;;;;;3.53;2.93;;;8.10;77.00;;;;;;4942069;28;20490;-47
2022/01/22 11:59:20;;;;;;;3.87;3.50;;;8.10;76.70;;;;;;4937707;28;20459;-47
2022/01/22 12:04:28;;;;;;;5.10;3.53;;;8.00;77.00;;;;;;4945736;28;20523;-47
2022/01/22 12:07:03;;;;;;;2.40;2.20;;;8.00;76.70;;;;;;4945890;28;21050;-47
2022/01/22 12:09:32;;;;;;;3.20;2.70;;;7.90;76.30;;;;;;4920018;28;20474;-47
2022/01/22 12:15:14;;;;;;;2.90;2.70;;;7.80;77.20;;;;;;4948435;28;21087;-47
2022/01/22 12:17:47;;;;;;;2.37;2.13;;;7.90;76.90;;;;;;4947817;28;20471;-47
2022/01/22 12:23:10;;;;;;;2.47;2.20;;;7.80;76.10;;;;;;4946369;28;20485;-46
2022/01/22 12:25:40;;;;;;;3.40;1.83;;;7.80;76.80;;;;;;4929216;28;20466;-46
2022/01/22 12:28:11;;;;;;;4.10;2.20;;;7.80;76.90;;;;;;4944218;28;20470;-47
2022/01/22 12:30:43;;;;;;;2.23;2.13;;;7.70;77.40;;;;;;4930797;29;20474;-47
2022/01/22 12:33:29;;;;;;;2.20;2.00;;;7.70;77.70;;;;;;4940513;28;20477;-47
2022/01/22 12:35:59;;;;;;;2.33;2.13;;;7.80;77.30;;;;;;4942849;28;20509;-47
2022/01/22 12:41:15;;;;;;;1.90;1.80;;;7.80;76.80;;;;;;4951858;28;20470;-47
2022/01/22 12:43:44;;;;;;;2.67;1.80;;;7.70;76.90;;;;;;4929520;28;20581;-47
2022/01/22 12:46:12;;;;;;;3.43;2.40;;;7.80;77.10;;;;;;4939645;28;20822;-47
2022/01/22 12:48:42;;;;;;;3.13;2.13;;;7.80;77.20;;;;;;4944538;28;20473;-47
2022/01/22 12:51:10;;;;;;;2.30;2.10;;;7.80;76.80;;;;;;4944379;28;20468;-46
2022/01/22 12:53:41;;;;;;;1.73;1.60;;;7.80;76.80;;;;;;4945713;28;20461;-46
2022/01/22 12:58:39;;;;;;;3.33;1.90;;;7.80;77.10;;;;;;4948437;28;20547;-47
2022/01/22 13:01:24;;;;;;;2.17;1.97;;;7.80;77.10;;;;;;4932057;28;20832;-46
2022/01/22 13:03:53;;;;;;;2.93;2.70;;;7.70;77.20;;;;;;4942734;28;20459;-46
2022/01/22 13:06:35;;;;;;;2.90;2.47;;;7.70;77.60;;;;;;4948527;28;20462;-46
2022/01/22 13:09:04;;;;;;;2.43;2.23;;;7.70;77.80;;;;;;4947621;28;20455;-47
2022/01/22 13:11:32;;;;;;;3.30;2.60;;;7.70;77.90;;;;;;4925953;28;20468;-46
2022/01/22 13:14:00;;;;;;;2.60;2.40;;;7.70;78.00;;;;;;4944622;28;21047;-47
2022/01/22 13:16:27;;;;;;;2.60;2.40;;;7.80;77.60;;;;;;4944506;28;20833;-47
2022/01/22 13:19:00;;;;;;;2.87;2.40;;;7.80;77.20;;;;;;4947778;28;20466;-48
2022/01/22 13:21:29;;;;;;;2.73;2.53;;;7.70;77.50;;;;;;4946327;28;21214;-47
2022/01/22 13:24:00;;;;;;;2.90;2.70;;;7.70;77.70;;;;;;4946210;28;20490;-47
2022/01/22 13:26:52;;;;;;;6.63;3.37;;;7.80;77.20;;;;;;4947274;28;20538;-46
2022/01/22 13:29:30;;;;;;;3.77;3.37;;;7.80;77.20;;;;;;4945398;28;20558;-47
2022/01/22 13:32:10;;;;;;;4.00;2.90;;;7.80;77.30;;;;;;4946466;28;20467;-46
2022/01/22 13:35:25;;;;;;;5.40;3.17;;;7.70;77.60;;;;;;4946911;28;20467;-47
2022/01/22 13:49:05;;;;;;;3.57;3.27;;;7.60;78.70;;;;;;4943444;28;20579;-47
2022/01/22 13:51:33;;;;;;;5.13;3.07;;;7.60;78.80;;;;;;4945848;28;20964;-47
2022/01/22 13:54:01;;;;;;;3.90;2.90;;;7.70;78.40;;;;;;4925849;28;20462;-47
2022/01/22 13:56:51;;;;;;;3.73;3.07;;;7.70;78.30;;;;;;4943491;28;20843;-46
2022/01/22 13:59:24;;;;;;;2.80;2.60;;;7.70;78.00;;;;;;4939565;28;20572;-47
2022/01/22 14:04:43;;;;;;;4.90;2.47;;;7.70;78.00;;;;;;4921475;29;20467;-47
2022/01/22 14:07:32;;;;;;;2.73;2.53;;;7.70;77.90;;;;;;4943078;28;20467;-47
2022/01/22 14:10:15;;;;;;;9.20;2.60;;;7.80;77.60;;;;;;4945314;28;20455;-47
2022/01/22 14:12:45;;;;;;;2.10;1.97;;;7.70;77.50;;;;;;4944280;28;20490;-47
2022/01/22 14:15:24;;;;;;;2.10;1.90;;;7.70;77.70;;;;;;4941214;28;20498;-47
2022/01/22 14:20:46;;;;;;;3.20;2.40;;;7.80;77.60;;;;;;4939950;28;20465;-47
2022/01/22 14:23:29;;;;;;;3.23;2.30;;;7.80;77.60;;;;;;4942102;28;20801;-47
2022/01/22 14:26:08;;;;;;;2.07;1.60;;;7.80;77.80;;;;;;4941734;28;20550;-47
2022/01/22 14:28:48;;;;;;;2.10;2.00;;;7.70;78.00;;;;;;4929793;29;20463;-47
2022/01/22 14:31:30;;;;;;;2.73;1.73;;;7.80;78.10;;;;;;4943916;28;20469;-47
2022/01/22 14:33:59;;;;;;;3.27;2.43;;;7.80;77.90;;;;;;4941297;28;20791;-47
2022/01/22 14:36:47;;;;;;;2.63;2.30;;;7.80;77.70;;;;;;4941619;28;20490;-47
2022/01/22 14:39:30;;;;;;;8.13;2.43;;;7.90;77.70;;;;;;4941102;28;21060;-47
2022/01/22 14:44:54;;;;;;;2.47;2.27;;;7.90;77.60;;;;;;4944031;28;20467;-46
2022/01/22 14:47:26;;;;;;;2.13;2.03;;;7.80;77.80;;;;;;4916378;29;20465;-47
2022/01/22 14:50:00;;;;;;;2.13;1.60;;;7.80;78.00;;;;;;4944567;28;20469;-47
2022/01/22 14:52:29;;;;;;;2.10;1.90;;;7.90;77.80;;;;;;4942101;28;20471;-47
2022/01/22 14:54:59;;;;;;;1.73;1.63;;;7.80;77.90;;;;;;4943201;28;20471;-50
2022/01/22 14:57:34;;;;;;;2.10;1.90;;;7.80;77.90;;;;;;4941347;28;20499;-49
2022/01/22 15:00:15;;;;;;;2.27;2.10;;;7.80;78.00;;;;;;4941350;28;21019;-49
2022/01/22 15:02:43;;;;;;;5.57;2.43;;;7.80;78.10;;;;;;4924369;28;20923;-46
2022/01/22 15:05:13;;;;;;;2.37;2.17;;;7.80;78.00;;;;;;4941236;28;21323;-47
2022/01/22 15:07:42;;;;;;;2.97;2.67;;;7.80;78.20;;;;;;4942689;28;20467;-46
2022/01/22 15:10:10;;;;;;;2.60;2.40;;;7.80;78.20;;;;;;4929293;28;20474;-47
2022/01/22 15:12:39;;;;;;;2.90;2.70;;;7.80;78.20;;;;;;4942486;28;21307;-46
2022/01/22 15:15:32;;;;;;;2.83;2.63;;;7.80;78.10;;;;;;4940764;28;20537;-47
2022/01/22 15:18:08;;;;;;;2.30;1.90;;;7.80;78.10;;;;;;4942627;28;20534;-46
2022/01/22 15:20:35;;;;;;;4.10;2.43;;;7.80;78.20;;;;;;4945160;28;20487;-48
2022/01/22 15:23:03;;;;;;;2.10;1.90;;;7.80;78.40;;;;;;4940405;28;20546;-46
2022/01/22 15:25:31;;;;;;;2.97;2.67;;;7.80;78.40;;;;;;4946156;28;20534;-47
2022/01/22 15:27:58;;;;;;;2.57;2.33;;;7.80;79.00;;;;;;4942583;28;20988;-47
2022/01/22 15:30:31;;;;;;;3.90;2.53;;;7.80;79.10;;;;;;4942689;28;20545;-47
2022/01/22 15:33:15;;;;;;;3.17;2.63;;;7.80;79.30;;;;;;4944319;28;20555;-47
2022/01/22 15:35:43;;;;;;;2.77;2.50;;;7.80;79.20;;;;;;4916870;29;20964;-46